Georgetown, TX (78626)

11:44 PM CDT on September 19, 2014 (GMT -0500)
La Conterra | Change Station
CLOSE
Current Station
Personal Weather Station
Location: Georgetown, TX
Elevation: 869 ft
Nearby Weather Stations

Elev 869 ft 30.60 °N, 97.66 °W | Updated 9 minutes ago

Mostly Cloudy
Mostly Cloudy
74.5 °F
Feels Like 73 °F
N
1.7
Wind Variable Wind from NE

Today
High -- | Low -- °F
--% Chance of Precip.
Yesterday
High -- | Low -- °F
Precip. -- in
7:17 AM 7:30 PM
Waning Crescent, 14% visible
Pressure 29.95 in
Visibility 10.0 miles
Clouds Few 1500 ft
Mostly Cloudy 2800 ft
Overcast 3400 ft
Heat Index 73 °F
Dew Point 71 °F
Humidity 89%
Rainfall 0.02 in
Snow Depth Not available.
UV 0 out of 12
Pollen 6.50 out of 12
Ozone Good
PM2.5 Good
Flu Activity Not available.
METAR KGTU 200435Z 10003KT 10SM FEW015 BKN028 OVC034 24/23 A2995 RMK AO1

More Conditions Fewer Conditions

Pressure 29.95 in
Visibility 10.0 miles
Clouds Few 1500 ft
Mostly Cloudy 2800 ft
Overcast 3400 ft
Heat Index 73 °F
Dew Point 71 °F
Humidity 89%
Rainfall 0.02 in
Snow Depth Not available.
UV 0 out of 12
Pollen 6.50 out of 12
Ozone Good
PM2.5 Good
Flu Activity Not available.
METAR KGTU 200435Z 10003KT 10SM FEW015 BKN028 OVC034 24/23 A2995 RMK AO1

More Conditions Fewer Conditions

10-Day Weather Forecast

Almanac

Astronomy

Sep. 19, 2014 Rise Set
Actual Time 7:17 AM CDT 7:30 PM CDT
Civil Twilight 6:53 AM CDT 7:55 PM CDT
Nautical Twilight 6:25 AM CDT 8:23 PM CDT
Astronomical Twilight 5:56 AM CDT 8:51 PM CDT
Moon 3:17 AM CDT (9/19) 4:48 PM CDT (9/19)
Length of Visible Light 13h 01m
Length of Day
12h 13m
Tomorrow will be 1m 50s shorter.
Waning Crescent, 14% of the Moon is Illuminated
Sep 20
Waning Crescent
Sep 24
New
Oct 1
First Quarter
Oct 8
Full
Oct 15
Last Quarter

Yesterday's Extremes

State Highs State Lows

Community

WunderPhotos

Upload Photos

1,754,777 photos uploaded!

WunderBlogs® & News

Nearby

Air Quality

  Air Quality AQ Index Pollutant
Yesterday Good
OZONE
Yesterday Good
PM2.5
Current Good
PM2.5
Current Good
OZONE
Friday Good
OZONE
Friday Good
PM10
Saturday Good
OZONE
Saturday Good
PM10
Sunday Good
OZONE
Sunday Good
PM10
Monday Moderate
OZONE
Monday Good
PM10
Tuesday Moderate
OZONE
Tuesday Good
PM10

Snow Depth

Station Depth Elevation
No new snow has been reported.

Earthquake Activity

City Distance Mag. Time & Date
No recent earthquake activity has been reported nearby.
Minimum magnitude displayed is 2.5.

Coastal Water Temperatures

Place Temperature
No Stations Reporting

Nearby Weather Stations